createdAt,value
2022-09-22T00:00:06.950Z,100085.06
2022-09-22T00:01:18.026Z,100080.09
2022-09-22T00:02:20.323Z,100083.53
2022-09-22T00:03:22.814Z,100085.38
2022-09-22T00:04:25.049Z,100092.22
2022-09-22T00:05:27.240Z,100088.75
2022-09-22T00:06:33.040Z,100083.56
2022-09-22T00:07:35.301Z,100083.69
2022-09-22T00:08:40.308Z,100080.16
2022-09-22T00:09:42.493Z,100082.72
2022-09-22T00:10:44.685Z,100086.91
2022-09-22T00:11:49.698Z,100084.25
2022-09-22T00:12:54.684Z,100083.31
2022-09-22T00:14:10.212Z,100081.50
2022-09-22T00:15:12.457Z,100084.03
2022-09-22T00:16:15.798Z,100079.75
2022-09-22T00:17:18.124Z,100085.84
2022-09-22T00:18:20.369Z,100077.16
2022-09-22T00:19:25.560Z,100080.63
2022-09-22T00:20:27.708Z,100076.19
2022-09-22T00:21:31.025Z,100075.38
2022-09-22T00:22:33.384Z,100067.50
2022-09-22T00:23:36.810Z,100062.34
2022-09-22T00:24:39.104Z,100073.63
2022-09-22T00:25:41.606Z,100064.88
2022-09-22T00:26:44.070Z,100065.69
2022-09-22T00:27:46.347Z,100067.47
2022-09-22T00:28:51.184Z,100062.31
2022-09-22T00:29:53.447Z,100064.13
2022-09-22T00:30:55.643Z,100071.00
2022-09-22T00:31:58.503Z,100060.75
2022-09-22T00:33:01.801Z,100069.53
2022-09-22T00:34:04.728Z,100067.75
2022-09-22T00:35:08.116Z,100070.44
2022-09-22T00:36:10.710Z,100066.88
2022-09-22T00:37:12.949Z,100061.78
2022-09-22T00:38:15.190Z,100067.84
2022-09-22T00:39:18.786Z,100067.09
2022-09-22T00:40:21.028Z,100074.22
2022-09-22T00:41:35.612Z,100067.28
2022-09-22T00:42:38.076Z,100063.72
2022-09-22T00:43:41.477Z,100062.00
2022-09-22T00:44:44.533Z,100062.81
2022-09-22T00:46:17.236Z,100068.03
2022-09-22T00:47:22.428Z,100062.75
2022-09-22T00:48:27.400Z,100058.38
2022-09-22T00:49:41.906Z,100044.38
2022-09-22T00:50:44.418Z,100061.59
2022-09-22T00:51:46.614Z,100051.09
2022-09-22T00:52:53.746Z,100060.75
2022-09-22T00:53:57.440Z,100052.84
2022-09-22T00:55:05.381Z,100054.53
2022-09-22T00:56:13.747Z,100052.78
2022-09-22T00:57:20.394Z,100058.94
2022-09-22T00:58:38.017Z,100059.09
2022-09-22T00:59:42.200Z,100061.75
2022-09-22T01:00:44.957Z,100058.22
2022-09-22T01:01:47.607Z,100056.50
2022-09-22T01:02:55.163Z,100053.03
2022-09-22T01:03:57.453Z,100054.81
2022-09-22T01:04:59.770Z,100057.44
2022-09-22T01:06:06.286Z,100053.13
2022-09-22T01:07:09.742Z,100060.06
2022-09-22T01:08:13.850Z,100057.44
2022-09-22T01:09:16.670Z,100065.28
2022-09-22T01:10:18.999Z,100066.97
2022-09-22T01:11:21.914Z,100064.34
2022-09-22T01:12:31.605Z,100057.47
2022-09-22T01:14:16.767Z,100065.25
2022-09-22T01:15:36.289Z,100063.53
2022-09-22T01:16:56.568Z,100063.53
2022-09-22T01:18:18.176Z,100063.59
2022-09-22T01:19:26.763Z,100065.47
2022-09-22T01:20:55.588Z,100064.63
2022-09-22T01:22:09.951Z,100061.94
2022-09-22T01:23:49.695Z,100066.22
2022-09-22T01:25:33.422Z,100065.44
2022-09-22T01:26:44.597Z,100073.56
2022-09-22T01:28:19.739Z,100064.03
2022-09-22T01:29:52.944Z,100069.41
2022-09-22T01:31:09.232Z,100064.19
2022-09-22T01:32:31.483Z,100064.94
2022-09-22T01:33:42.691Z,100073.66
2022-09-22T01:34:52.335Z,100067.59
2022-09-22T01:36:13.634Z,100065.84
2022-09-22T01:37:34.195Z,100063.13
2022-09-22T01:38:39.634Z,100060.50
2022-09-22T01:39:51.967Z,100061.25
2022-09-22T01:41:03.458Z,100059.44
2022-09-22T01:42:19.597Z,100061.19
2022-09-22T01:43:54.351Z,100064.63
2022-09-22T01:45:19.288Z,100057.69
2022-09-22T01:46:36.208Z,100055.94
2022-09-22T01:48:05.082Z,100055.03
2022-09-22T01:49:10.972Z,100057.69
2022-09-22T01:50:21.988Z,100051.03
2022-09-22T01:51:36.678Z,100053.72
2022-09-22T01:52:41.201Z,100049.56
2022-09-22T01:53:50.793Z,100058.34
2022-09-22T01:55:01.200Z,100051.41
2022-09-22T01:56:07.878Z,100053.16
2022-09-22T01:57:51.960Z,100056.75
2022-09-22T01:58:59.920Z,100054.06
2022-09-22T02:00:06.124Z,100050.66
2022-09-22T02:01:19.026Z,100054.25
2022-09-22T02:02:31.945Z,100054.25
2022-09-22T02:03:43.339Z,100050.66
2022-09-22T02:04:50.901Z,100050.75
2022-09-22T02:06:10.756Z,100049.03
2022-09-22T02:07:20.304Z,100048.19
2022-09-22T02:08:37.620Z,100041.22
2022-09-22T02:09:42.376Z,100047.31
2022-09-22T02:10:47.548Z,100051.75
2022-09-22T02:11:50.138Z,100039.66
2022-09-22T02:12:52.508Z,100047.47
2022-09-22T02:13:54.901Z,100043.19
2022-09-22T02:14:57.553Z,100044.09
2022-09-22T02:16:02.888Z,100044.06
2022-09-22T02:17:05.245Z,100039.66
2022-09-22T02:18:14.026Z,100047.38
2022-09-22T02:19:24.060Z,100030.06
2022-09-22T02:20:26.939Z,100020.63
2022-09-22T02:21:29.291Z,100030.25
2022-09-22T02:22:32.118Z,100043.25
2022-09-22T02:23:35.318Z,100038.88
2022-09-22T02:24:41.293Z,100038.03
2022-09-22T02:25:45.780Z,100037.97
2022-09-22T02:26:48.022Z,100031.84
2022-09-22T02:27:53.487Z,100032.63
2022-09-22T02:29:02.253Z,100032.50
2022-09-22T02:30:10.684Z,100034.22
2022-09-22T02:31:21.382Z,100030.94
2022-09-22T02:32:24.898Z,100042.34
2022-09-22T02:33:29.036Z,100037.16
2022-09-22T02:34:33.019Z,100039.78
2022-09-22T02:35:39.228Z,100044.16
2022-09-22T02:37:13.935Z,100031.22
2022-09-22T02:38:21.251Z,100040.66
2022-09-22T02:39:38.675Z,100038.06
2022-09-22T02:41:10.999Z,100041.56
2022-09-22T02:42:22.055Z,100032.94
2022-09-22T02:43:33.785Z,100037.28
2022-09-22T02:44:47.127Z,100036.47
2022-09-22T02:46:04.123Z,100034.75
2022-09-22T02:47:11.767Z,100022.63
2022-09-22T02:48:40.267Z,100026.09
2022-09-22T02:49:43.922Z,100025.22
2022-09-22T02:50:46.185Z,100030.44
2022-09-22T02:51:49.503Z,100024.31
2022-09-22T02:53:13.100Z,100020.84
2022-09-22T02:54:15.391Z,100028.63
2022-09-22T02:55:17.750Z,100025.06
2022-09-22T02:56:20.254Z,100026.75
2022-09-22T02:57:22.845Z,100024.25
2022-09-22T02:58:25.083Z,100026.03
2022-09-22T02:59:27.253Z,100024.25
2022-09-22T03:00:29.452Z,100024.25
2022-09-22T03:01:31.686Z,100019.94
2022-09-22T03:02:34.081Z,100031.19
2022-09-22T03:03:36.295Z,100028.59
2022-09-22T03:04:38.587Z,100022.47
2022-09-22T03:05:40.851Z,100021.53
2022-09-22T03:06:43.054Z,100013.63
2022-09-22T03:07:45.279Z,100013.59
2022-09-22T03:08:47.492Z,100019.72
2022-09-22T03:09:49.663Z,100024.97
2022-09-22T03:10:51.946Z,100012.91
2022-09-22T03:11:54.351Z,100015.53
2022-09-22T03:13:15.476Z,100019.84
2022-09-22T03:14:18.506Z,100019.06
2022-09-22T03:15:23.842Z,100007.81
2022-09-22T03:16:29.291Z,100008.72
2022-09-22T03:17:32.853Z,100014.81
2022-09-22T03:18:35.523Z,100018.28
2022-09-22T03:19:37.725Z,100014.75
2022-09-22T03:20:40.042Z,100018.97
2022-09-22T03:21:42.258Z,100022.41
2022-09-22T03:22:44.584Z,100013.66
2022-09-22T03:23:46.915Z,100010.13
2022-09-22T03:24:49.112Z,100010.94
2022-09-22T03:25:51.334Z,100014.41
2022-09-22T03:26:53.550Z,100015.41
2022-09-22T03:27:55.769Z,100019.81
2022-09-22T03:28:57.994Z,100012.84
2022-09-22T03:30:00.590Z,100002.44
2022-09-22T03:31:02.805Z,100006.75
2022-09-22T03:32:05.464Z,100011.94
2022-09-22T03:33:07.689Z,100016.22
2022-09-22T03:34:09.916Z,100008.56
2022-09-22T03:35:12.122Z,100010.44
2022-09-22T03:36:14.512Z,100012.16
2022-09-22T03:37:17.271Z,100007.84
2022-09-22T03:38:19.509Z,100006.13
2022-09-22T03:39:21.722Z,100006.91
2022-09-22T03:40:24.064Z,100003.41
2022-09-22T03:41:26.670Z,100003.34
2022-09-22T03:42:28.926Z,100001.72
2022-09-22T03:43:31.228Z,100007.84
2022-09-22T03:44:33.435Z,100004.38
2022-09-22T03:45:35.715Z,100000.09
2022-09-22T03:46:38.226Z,100008.84
2022-09-22T03:47:40.437Z,100008.81
2022-09-22T03:48:45.108Z,100006.19
2022-09-22T03:49:48.739Z,100007.00
2022-09-22T03:50:53.755Z,100001.75
2022-09-22T03:51:55.983Z,100000.88
2022-09-22T03:52:58.161Z,100008.72
2022-09-22T03:54:00.751Z,100001.72
2022-09-22T03:55:03.314Z,100004.34
2022-09-22T03:56:11.745Z,100009.63
2022-09-22T03:57:14.084Z,100007.91
2022-09-22T03:58:17.010Z,100007.91
2022-09-22T03:59:19.222Z,100011.47
2022-09-22T04:00:21.640Z,100011.41
2022-09-22T04:01:24.057Z,100009.75
2022-09-22T04:02:26.363Z,100009.75
2022-09-22T04:03:29.101Z,100005.38
2022-09-22T04:04:32.493Z,100010.56
2022-09-22T04:05:34.999Z,100006.28
2022-09-22T04:06:38.654Z,100007.25
2022-09-22T04:07:40.969Z,100002.00
2022-09-22T04:08:43.629Z,100000.19
2022-09-22T04:09:45.916Z,100004.59
2022-09-22T04:10:48.441Z,100000.25
2022-09-22T04:11:50.765Z,100001.09
2022-09-22T04:12:52.992Z,100001.16
2022-09-22T04:13:55.471Z,100002.03
2022-09-22T04:14:57.679Z,100001.16
2022-09-22T04:15:59.894Z,100000.34
2022-09-22T04:17:02.225Z,100000.41
2022-09-22T04:18:05.108Z,100005.59
2022-09-22T04:19:07.314Z,100002.13
2022-09-22T04:20:11.782Z,100003.00
2022-09-22T04:21:14.007Z,100007.31
2022-09-22T04:22:16.178Z,100002.97
2022-09-22T04:23:18.414Z,100002.94
2022-09-22T04:24:20.653Z,100001.19
2022-09-22T04:25:23.181Z,99995.16
2022-09-22T04:26:25.824Z,99995.94
2022-09-22T04:27:28.025Z,100001.09
2022-09-22T04:28:30.561Z,99994.19
2022-09-22T04:29:32.801Z,99997.66
2022-09-22T04:30:35.612Z,99992.38
2022-09-22T04:31:37.887Z,99997.50
2022-09-22T04:32:40.257Z,99993.25
2022-09-22T04:33:43.424Z,100001.00
2022-09-22T04:34:45.979Z,99992.25
2022-09-22T04:35:49.671Z,99988.75
2022-09-22T04:36:52.133Z,99997.34
2022-09-22T04:37:58.028Z,99989.50
2022-09-22T04:39:03.082Z,99991.38
2022-09-22T04:40:06.071Z,100000.91
2022-09-22T04:41:08.343Z,99997.44
2022-09-22T04:42:10.555Z,99999.19
2022-09-22T04:43:13.346Z,99994.00
2022-09-22T04:44:15.517Z,99998.31
2022-09-22T04:45:17.941Z,99993.13
2022-09-22T04:46:20.200Z,99993.09
2022-09-22T04:47:22.634Z,99998.22
2022-09-22T04:48:24.853Z,99997.25
2022-09-22T04:49:27.108Z,99987.72
2022-09-22T04:50:29.470Z,99997.25
2022-09-22T04:51:31.637Z,99990.31
2022-09-22T04:52:33.869Z,99998.94
2022-09-22T04:53:36.094Z,99996.34
2022-09-22T04:54:38.318Z,99997.22
2022-09-22T04:55:40.531Z,99996.41
2022-09-22T04:56:42.758Z,99988.63
2022-09-22T04:57:52.557Z,99992.03
2022-09-22T04:58:54.816Z,99985.13
2022-09-22T04:59:57.077Z,99992.03
2022-09-22T05:01:04.176Z,100004.19
2022-09-22T05:02:06.426Z,99995.53
2022-09-22T05:03:10.880Z,99982.53
2022-09-22T05:04:13.426Z,99998.09
2022-09-22T05:05:16.253Z,99998.94
2022-09-22T05:06:18.464Z,100006.75
2022-09-22T05:07:20.687Z,99994.63
2022-09-22T05:08:23.056Z,100002.44
2022-09-22T05:09:25.243Z,100005.91
2022-09-22T05:10:31.239Z,100008.56
2022-09-22T05:11:33.445Z,100004.31
2022-09-22T05:12:39.263Z,99996.47
2022-09-22T05:13:41.512Z,100002.44
2022-09-22T05:14:43.691Z,100005.06
2022-09-22T05:15:45.967Z,100004.25
2022-09-22T05:16:48.199Z,100009.56
2022-09-22T05:17:52.591Z,100011.28
2022-09-22T05:18:55.243Z,100009.53
2022-09-22T05:19:57.442Z,100009.59
2022-09-22T05:21:00.284Z,100000.97
2022-09-22T05:22:02.503Z,100004.47
2022-09-22T05:23:04.711Z,100008.81
2022-09-22T05:24:07.137Z,100012.28
2022-09-22T05:25:14.646Z,100011.41
2022-09-22T05:26:16.907Z,100016.75
2022-09-22T05:27:19.074Z,100020.25
2022-09-22T05:28:24.234Z,100022.84
2022-09-22T05:29:28.096Z,100011.56
2022-09-22T05:30:30.985Z,100018.47
2022-09-22T05:31:33.269Z,100017.56
2022-09-22T05:32:35.440Z,100020.19
2022-09-22T05:33:37.751Z,100026.25
2022-09-22T05:34:39.961Z,100026.06
2022-09-22T05:35:42.562Z,100026.31
2022-09-22T05:36:45.264Z,100030.25
2022-09-22T05:37:49.597Z,100021.84
2022-09-22T05:38:51.801Z,100022.75
2022-09-22T05:39:54.021Z,100023.66
2022-09-22T05:40:56.237Z,100020.75
2022-09-22T05:41:58.595Z,100012.59
2022-09-22T05:43:01.111Z,99999.94
2022-09-22T05:44:03.528Z,99987.69
2022-09-22T05:45:06.317Z,99993.47
2022-09-22T05:46:08.626Z,100008.25
2022-09-22T05:47:10.896Z,100009.81
2022-09-22T05:48:13.128Z,100010.31
2022-09-22T05:49:15.495Z,100011.41
2022-09-22T05:50:19.478Z,100015.53
2022-09-22T05:51:21.804Z,100011.78
2022-09-22T05:52:24.040Z,100009.59
2022-09-22T05:53:26.276Z,100016.53
2022-09-22T05:54:28.583Z,100019.41
2022-09-22T05:55:30.990Z,100016.97
2022-09-22T05:56:33.566Z,100019.31
2022-09-22T05:57:36.057Z,100018.69
2022-09-22T05:58:38.379Z,100023.75
2022-09-22T05:59:40.601Z,100022.94
2022-09-22T06:00:42.969Z,100023.13
2022-09-22T06:01:45.277Z,100032.09
2022-09-22T06:02:48.015Z,100032.38
2022-09-22T06:03:50.372Z,100033.63
2022-09-22T06:04:53.328Z,100033.16
2022-09-22T06:05:55.726Z,100031.06
2022-09-22T06:06:59.698Z,100035.75
2022-09-22T06:08:05.199Z,100024.44
2022-09-22T06:09:07.815Z,100028.69
2022-09-22T06:10:11.673Z,100027.03
2022-09-22T06:11:13.894Z,100030.53
2022-09-22T06:12:17.119Z,100025.38
2022-09-22T06:13:19.462Z,100020.19
2022-09-22T06:14:21.783Z,100026.34
2022-09-22T06:15:24.127Z,100010.78
2022-09-22T06:16:26.640Z,100018.63
2022-09-22T06:17:29.038Z,100023.72
2022-09-22T06:18:31.509Z,100020.94
2022-09-22T06:19:34.665Z,100021.06
2022-09-22T06:20:37.962Z,100021.91
2022-09-22T06:21:40.322Z,100005.00
2022-09-22T06:22:44.957Z,100017.03
2022-09-22T06:23:47.291Z,100014.56
2022-09-22T06:24:50.108Z,100010.19
2022-09-22T06:25:59.084Z,100010.28
2022-09-22T06:27:01.543Z,100018.97
2022-09-22T06:28:09.624Z,100010.25
2022-09-22T06:29:11.887Z,100015.34
2022-09-22T06:30:14.222Z,100014.53
2022-09-22T06:31:16.640Z,100015.34
2022-09-22T06:32:19.446Z,100008.94
2022-09-22T06:33:23.830Z,100014.16
2022-09-22T06:34:27.203Z,100014.03
2022-09-22T06:35:37.536Z,100016.69
2022-09-22T06:36:45.320Z,100013.13
2022-09-22T06:37:48.563Z,100017.28
2022-09-22T06:38:50.883Z,100011.97
2022-09-22T06:39:53.299Z,100018.16
2022-09-22T06:41:00.658Z,100016.13
2022-09-22T06:42:04.684Z,100015.72
2022-09-22T06:43:15.041Z,100015.69
2022-09-22T06:44:17.531Z,100017.19
2022-09-22T06:45:19.776Z,100012.88
2022-09-22T06:46:27.182Z,100024.88
2022-09-22T06:47:29.905Z,100009.06
2022-09-22T06:48:32.143Z,100016.75
2022-09-22T06:49:34.463Z,100008.69
2022-09-22T06:50:36.847Z,100015.19
2022-09-22T06:51:39.904Z,100005.56
2022-09-22T06:52:42.224Z,100014.41
2022-09-22T06:53:46.626Z,100016.03
2022-09-22T06:55:00.777Z,100010.53
2022-09-22T06:56:05.771Z,100005.97
2022-09-22T06:57:08.939Z,100011.13
2022-09-22T06:58:12.908Z,100013.34
2022-09-22T07:03:58.359Z,100019.50
2022-09-22T07:05:00.765Z,100008.06
2022-09-22T07:06:03.163Z,100010.88
2022-09-22T07:07:05.754Z,100006.31
2022-09-22T07:08:09.138Z,100016.00
2022-09-22T07:09:12.279Z,100007.03
2022-09-22T07:10:14.645Z,99998.28
2022-09-22T07:11:19.302Z,100008.41
2022-09-22T07:12:22.441Z,100007.66
2022-09-22T07:13:26.000Z,100005.19
2022-09-22T07:14:29.610Z,100013.66
2022-09-22T07:15:33.292Z,100006.63
2022-09-22T07:16:36.500Z,100009.97
2022-09-22T07:17:39.593Z,100002.44
2022-09-22T07:18:45.140Z,100004.03
2022-09-22T07:19:47.490Z,100014.31
2022-09-22T07:20:49.871Z,100009.59
2022-09-22T07:21:52.094Z,100003.47
2022-09-22T07:23:00.397Z,100000.66
2022-09-22T07:24:03.536Z,99997.09
2022-09-22T07:25:07.792Z,99998.63
2022-09-22T07:26:13.381Z,99998.66
2022-09-22T07:27:18.163Z,99997.22
2022-09-22T07:28:20.490Z,99994.63
2022-09-22T07:29:22.889Z,100001.72
2022-09-22T07:30:26.205Z,99998.69
2022-09-22T07:31:30.798Z,99992.53
2022-09-22T07:32:35.081Z,99997.59
2022-09-22T07:33:39.680Z,99994.41
2022-09-22T07:34:42.114Z,99996.34
2022-09-22T07:35:44.402Z,99990.91
2022-09-22T07:36:48.935Z,99993.00
2022-09-22T07:37:57.036Z,99998.53
2022-09-22T07:39:06.622Z,99999.16
2022-09-22T07:40:09.257Z,99996.47
2022-09-22T07:41:14.184Z,99999.22
2022-09-22T07:42:17.019Z,100003.06
2022-09-22T07:43:19.414Z,99992.28
2022-09-22T07:44:44.313Z,99993.00
2022-09-22T07:45:59.747Z,99999.50
2022-09-22T07:47:03.412Z,100001.25
2022-09-22T07:48:24.719Z,99992.03
2022-09-22T07:49:27.698Z,99989.13
2022-09-22T07:50:30.473Z,99985.81
2022-09-22T07:51:34.131Z,99986.34
2022-09-22T07:52:36.792Z,99982.72
2022-09-22T07:53:40.824Z,99983.25
2022-09-22T07:54:43.386Z,99992.56
2022-09-22T07:55:46.271Z,99990.72
2022-09-22T07:56:49.988Z,99988.72
2022-09-22T07:57:56.792Z,99991.41
2022-09-22T07:59:02.147Z,99976.19
2022-09-22T08:00:04.618Z,99981.28
2022-09-22T08:01:14.988Z,99990.56
2022-09-22T08:02:17.822Z,99991.06
2022-09-22T08:03:20.744Z,99991.97
2022-09-22T08:04:23.813Z,99991.84
2022-09-22T08:05:28.539Z,99990.53
2022-09-22T08:06:32.254Z,99992.84
2022-09-22T08:07:36.170Z,99982.56
2022-09-22T08:08:42.772Z,99989.38
2022-09-22T08:09:45.009Z,99986.69
2022-09-22T08:10:47.351Z,99991.59
2022-09-22T08:11:50.062Z,99991.03
2022-09-22T08:12:58.041Z,99994.38
2022-09-22T08:14:05.838Z,99983.31
2022-09-22T08:15:08.626Z,99995.78
2022-09-22T08:16:11.562Z,99989.78
2022-09-22T08:17:13.924Z,99996.78
2022-09-22T08:18:16.225Z,99990.03
2022-09-22T08:19:20.115Z,99990.38
2022-09-22T08:20:23.015Z,99985.63
2022-09-22T08:21:26.886Z,99992.56
2022-09-22T08:22:29.366Z,99980.19
2022-09-22T08:23:32.392Z,99990.56
2022-09-22T08:24:34.973Z,99982.28
2022-09-22T08:25:37.252Z,99989.72
2022-09-22T08:26:47.481Z,99988.88
2022-09-22T08:27:51.102Z,99986.03
2022-09-22T08:28:54.791Z,99983.94
2022-09-22T08:29:57.142Z,99981.94
2022-09-22T08:30:59.817Z,99977.28
2022-09-22T08:32:03.251Z,99986.22
2022-09-22T08:33:05.721Z,99985.72
2022-09-22T08:34:09.533Z,99988.28
2022-09-22T08:35:11.945Z,99984.97
2022-09-22T08:36:14.902Z,99986.16
2022-09-22T08:37:17.211Z,99985.88
2022-09-22T08:38:19.584Z,99976.50
2022-09-22T08:39:22.098Z,99984.03
2022-09-22T08:40:24.702Z,99986.66
2022-09-22T08:41:38.340Z,99991.50
2022-09-22T08:42:41.240Z,99983.84
2022-09-22T08:44:20.492Z,99982.91
2022-09-22T08:45:38.490Z,99983.75
2022-09-22T08:46:44.042Z,99975.63
2022-09-22T08:48:11.668Z,99983.56
2022-09-22T08:49:55.537Z,99982.81
2022-09-22T08:51:26.295Z,99985.03
2022-09-22T08:52:38.874Z,99971.31
2022-09-22T08:53:47.730Z,99986.72
2022-09-22T08:54:50.217Z,99978.03
2022-09-22T08:56:21.903Z,99988.47
2022-09-22T08:57:37.254Z,99987.81
2022-09-22T08:59:09.947Z,99983.09
2022-09-22T09:00:17.690Z,99985.19
2022-09-22T09:01:42.672Z,99984.91
2022-09-22T09:03:17.229Z,99980.94
2022-09-22T09:04:52.933Z,99986.84
2022-09-22T09:06:16.426Z,99973.59
2022-09-22T09:07:28.551Z,99982.13
2022-09-22T09:08:36.590Z,99975.09
2022-09-22T09:09:41.328Z,99975.59
2022-09-22T09:10:57.017Z,99970.00
2022-09-22T09:12:31.419Z,99981.66
2022-09-22T09:13:37.056Z,99978.88
2022-09-22T09:14:49.188Z,99979.56
2022-09-22T09:16:22.210Z,99972.34
2022-09-22T09:17:30.562Z,99977.22
2022-09-22T09:18:37.073Z,99973.47
2022-09-22T09:19:43.772Z,99967.09
2022-09-22T09:20:49.184Z,99969.81
2022-09-22T09:21:55.119Z,99971.03
2022-09-22T09:23:00.582Z,99970.22
2022-09-22T09:25:30.935Z,99977.94
2022-09-22T09:26:35.504Z,99979.31
2022-09-22T09:27:43.716Z,99970.22
2022-09-22T09:29:02.939Z,99982.97
2022-09-22T09:30:06.825Z,99979.81
2022-09-22T09:31:21.655Z,99981.47
2022-09-22T09:32:48.872Z,99978.19
2022-09-22T09:34:07.631Z,99974.78
2022-09-22T09:35:42.072Z,99970.16
2022-09-22T09:36:51.235Z,99969.28
2022-09-22T09:37:59.751Z,99961.34
2022-09-22T09:39:13.382Z,99976.28
2022-09-22T09:40:18.767Z,99972.97
2022-09-22T09:41:39.997Z,99972.28
2022-09-22T09:42:43.457Z,99973.22
2022-09-22T09:43:45.791Z,99979.38
2022-09-22T09:44:53.344Z,99974.16
2022-09-22T09:46:34.448Z,99982.09
2022-09-22T09:47:51.691Z,99977.41
2022-09-22T09:49:16.016Z,99966.81
2022-09-22T09:50:19.927Z,99965.72
2022-09-22T09:51:23.213Z,99973.13
2022-09-22T09:52:27.471Z,99971.28
2022-09-22T09:53:46.671Z,99968.78
2022-09-22T09:54:49.195Z,99962.81
2022-09-22T09:55:51.494Z,99958.09
2022-09-22T09:57:28.007Z,99964.25
2022-09-22T09:58:49.469Z,99960.25
2022-09-22T10:00:33.255Z,99967.69
2022-09-22T10:01:42.184Z,99960.00
2022-09-22T10:02:50.243Z,99959.56
2022-09-22T10:03:54.848Z,99969.19
2022-09-22T10:05:02.701Z,99958.91
2022-09-22T10:06:08.721Z,99966.91
2022-09-22T10:07:12.960Z,99960.34
2022-09-22T10:08:20.256Z,99948.94
2022-09-22T10:09:24.904Z,99947.81
2022-09-22T10:10:30.069Z,99959.09
2022-09-22T10:11:32.715Z,99954.44
2022-09-22T10:12:35.066Z,99957.28
2022-09-22T10:13:39.300Z,99948.75
2022-09-22T10:14:50.303Z,99955.63
2022-09-22T10:16:04.169Z,99951.91
2022-09-22T10:17:22.756Z,99960.03
2022-09-22T10:18:25.092Z,99954.09
2022-09-22T10:19:31.899Z,99947.50
2022-09-22T10:20:34.435Z,99951.16
2022-09-22T10:21:37.592Z,99948.91
2022-09-22T10:22:42.196Z,99947.59
2022-09-22T10:23:47.248Z,99952.63
2022-09-22T10:24:55.880Z,99952.50
2022-09-22T10:26:14.956Z,99939.16
2022-09-22T10:27:20.988Z,99944.31
2022-09-22T10:28:23.285Z,99934.59
2022-09-22T10:29:27.224Z,99941.28
2022-09-22T10:30:37.500Z,99944.13
2022-09-22T10:31:41.699Z,99935.34
2022-09-22T10:33:05.042Z,99937.09
2022-09-22T10:34:30.127Z,99937.91
2022-09-22T10:35:35.179Z,99932.03
2022-09-22T10:36:44.768Z,99930.94
2022-09-22T10:37:48.411Z,99923.78
2022-09-22T10:38:53.326Z,99936.19
2022-09-22T10:40:02.351Z,99936.75
2022-09-22T10:41:08.809Z,99940.16
2022-09-22T10:42:34.174Z,99923.50
2022-09-22T10:43:51.962Z,99928.00
2022-09-22T10:45:00.038Z,99932.19
2022-09-22T10:46:36.004Z,99921.88
2022-09-22T10:48:03.629Z,99925.00
2022-09-22T10:49:11.793Z,99931.16
2022-09-22T10:50:28.488Z,99925.75
2022-09-22T10:51:55.126Z,99923.19
2022-09-22T10:52:58.966Z,99918.44
2022-09-22T10:54:24.552Z,99915.78
2022-09-22T10:56:10.530Z,99917.94
2022-09-22T10:57:37.843Z,99910.06
2022-09-22T10:58:59.488Z,99912.13
2022-09-22T11:00:02.827Z,99919.84
2022-09-22T11:01:54.563Z,99910.25
2022-09-22T11:03:24.256Z,99906.28
2022-09-22T11:04:38.467Z,99905.72
2022-09-22T11:06:02.558Z,99907.06
2022-09-22T11:07:55.392Z,99900.41
2022-09-22T11:09:22.446Z,99913.72
2022-09-22T11:10:59.135Z,99912.84
2022-09-22T11:12:16.894Z,99917.78
2022-09-22T11:13:57.659Z,99922.56
2022-09-22T11:15:54.349Z,99917.25
2022-09-22T11:17:29.619Z,99910.03
2022-09-22T11:18:47.120Z,99911.72
2022-09-22T11:20:13.169Z,99909.66
2022-09-22T11:21:38.671Z,99906.34
2022-09-22T11:22:59.741Z,99897.66
2022-09-22T11:24:19.313Z,99906.94
2022-09-22T11:25:49.205Z,99908.81
2022-09-22T11:26:57.521Z,99906.13
2022-09-22T11:28:24.416Z,99904.38
2022-09-22T11:30:00.421Z,99901.94
2022-09-22T11:31:04.977Z,99900.91
2022-09-22T11:32:41.862Z,99896.09
2022-09-22T11:33:44.065Z,99888.69
2022-09-22T11:34:46.247Z,99891.22
2022-09-22T11:36:04.146Z,99885.63
2022-09-22T11:37:27.833Z,99882.13
2022-09-22T11:39:07.659Z,99880.66
2022-09-22T11:40:33.544Z,99896.25
2022-09-22T11:41:55.355Z,99896.09
2022-09-22T11:43:04.500Z,99891.97
2022-09-22T11:44:07.073Z,99891.44
2022-09-22T11:45:47.314Z,99884.69
2022-09-22T11:47:07.018Z,99885.38
2022-09-22T11:48:48.133Z,99883.69
2022-09-22T11:49:53.518Z,99879.94
2022-09-22T11:51:24.865Z,99879.78
2022-09-22T11:52:58.561Z,99880.44
2022-09-22T11:54:15.088Z,99871.88
2022-09-22T11:55:44.720Z,99870.75
2022-09-22T11:56:51.820Z,99863.84
2022-09-22T11:57:58.851Z,99871.69
2022-09-22T11:59:24.542Z,99875.16
2022-09-22T12:00:33.228Z,99867.38
2022-09-22T12:01:40.159Z,99868.81
2022-09-22T12:03:02.014Z,99873.00
2022-09-22T12:04:42.597Z,99858.00
2022-09-22T12:05:50.257Z,99874.69
2022-09-22T12:06:56.789Z,99862.91
2022-09-22T12:08:14.382Z,99868.50
2022-09-22T12:09:36.672Z,99866.34
2022-09-22T12:10:44.747Z,99859.53
2022-09-22T12:11:47.061Z,99862.06
2022-09-22T12:12:51.644Z,99853.81
2022-09-22T12:13:56.218Z,99849.59
2022-09-22T12:15:07.239Z,99857.91
2022-09-22T12:16:21.263Z,99856.19
2022-09-22T12:17:36.654Z,99849.22
2022-09-22T12:18:48.488Z,99850.31
2022-09-22T12:20:03.262Z,99852.50
2022-09-22T12:21:24.386Z,99861.25
2022-09-22T12:22:37.313Z,99858.00
2022-09-22T12:23:45.332Z,99860.47
2022-09-22T12:24:49.816Z,99856.84
2022-09-22T12:25:55.328Z,99851.19
2022-09-22T12:26:57.802Z,99854.22
2022-09-22T12:28:00.059Z,99857.06
2022-09-22T12:29:08.781Z,99847.53
2022-09-22T12:30:24.354Z,99847.56
2022-09-22T12:31:35.919Z,99843.50
2022-09-22T12:32:41.782Z,99847.88
2022-09-22T12:33:47.644Z,99834.66
2022-09-22T12:34:50.038Z,99849.56
2022-09-22T12:35:54.789Z,99840.09
2022-09-22T12:36:59.768Z,99829.53
2022-09-22T12:38:02.592Z,99830.53
2022-09-22T12:39:20.136Z,99833.75
2022-09-22T12:40:35.389Z,99831.53
2022-09-22T12:42:08.352Z,99828.97
2022-09-22T12:43:19.271Z,99826.78
2022-09-22T12:44:24.974Z,99822.44
2022-09-22T12:45:36.108Z,99832.41
2022-09-22T12:46:42.888Z,99826.78
2022-09-22T12:47:51.357Z,99824.72
2022-09-22T12:48:53.812Z,99820.53
2022-09-22T12:49:58.948Z,99825.47
2022-09-22T12:51:16.270Z,99825.19
2022-09-22T12:52:40.005Z,99818.41
2022-09-22T12:53:43.846Z,99817.28
2022-09-22T12:54:46.809Z,99816.06
2022-09-22T12:55:54.675Z,99809.53
2022-09-22T12:57:21.491Z,99815.19
2022-09-22T12:58:23.936Z,99811.47
2022-09-22T12:59:38.092Z,99811.16
2022-09-22T13:00:43.163Z,99816.66
2022-09-22T13:01:45.632Z,99812.97
2022-09-22T13:02:49.769Z,99812.34
2022-09-22T13:03:52.599Z,99814.22
2022-09-22T13:04:55.098Z,99808.19
2022-09-22T13:06:24.162Z,99806.25
2022-09-22T13:07:41.061Z,99809.66
2022-09-22T13:08:43.252Z,99808.91
2022-09-22T13:09:45.487Z,99807.41
2022-09-22T13:10:56.621Z,99802.22
2022-09-22T13:12:11.942Z,99801.81
2022-09-22T13:13:36.752Z,99805.03
2022-09-22T13:15:06.699Z,99805.06
2022-09-22T13:16:15.238Z,99799.38
2022-09-22T13:17:36.081Z,99796.94